Time;durP1;ratioP1;P1;durP2;ratioP2;P2;SDS_P1;SDS_P2;PMS_P1;PMS_P2;Temp;Humidity;BMP_temperature;BMP_pressure;BME280_temperature;BME280_humidity;BME280_pressure;Samples;Min_cycle;Max_cycle;Signal;HPM_P1;HPM_P2
2021/04/30 00:01:44;;;;;;;19.65;8.18;;;8.40;64.60;;;;;;5090642;28;20484;-83
2021/04/30 00:04:10;;;;;;;15.77;8.13;;;8.40;64.60;;;;;;5093150;28;20489;-85
2021/04/30 00:06:35;;;;;;;13.95;8.85;;;8.40;64.50;;;;;;5083509;28;20028;-82
2021/04/30 00:09:01;;;;;;;9.93;7.95;;;8.40;64.60;;;;;;5096159;28;20541;-83
2021/04/30 00:11:27;;;;;;;12.20;8.18;;;8.40;64.70;;;;;;5098984;28;20107;-84
2021/04/30 00:13:53;;;;;;;11.63;8.02;;;8.40;64.70;;;;;;5077601;28;20107;-81
2021/04/30 00:16:19;;;;;;;15.55;8.50;;;8.40;65.40;;;;;;5095446;28;20440;-84
2021/04/30 00:18:44;;;;;;;14.73;8.15;;;8.30;64.80;;;;;;5095558;28;20064;-82
2021/04/30 00:21:10;;;;;;;14.10;7.93;;;8.30;64.90;;;;;;5096336;28;20024;-84
2021/04/30 00:23:36;;;;;;;11.10;8.65;;;8.20;65.00;;;;;;5095449;28;20103;-84
2021/04/30 00:26:04;;;;;;;17.45;8.32;;;8.20;65.20;;;;;;5095929;28;20024;-83
2021/04/30 00:28:31;;;;;;;12.20;8.10;;;8.20;65.30;;;;;;5096261;28;20024;-86
2021/04/30 00:30:57;;;;;;;13.37;8.23;;;8.20;65.30;;;;;;5097375;28;20048;-84
2021/04/30 00:33:24;;;;;;;11.30;7.70;;;8.30;65.10;;;;;;5098097;28;20020;-86
2021/04/30 00:35:51;;;;;;;16.08;7.65;;;8.30;65.00;;;;;;5096877;28;20385;-84
2021/04/30 00:38:17;;;;;;;13.80;8.68;;;8.30;64.70;;;;;;5078461;28;20115;-86
2021/04/30 00:40:43;;;;;;;17.15;9.07;;;8.40;64.70;;;;;;5104288;28;20060;-84
2021/04/30 00:43:12;;;;;;;11.63;8.60;;;8.40;64.70;;;;;;5104116;28;20023;-85
2021/04/30 00:45:38;;;;;;;13.00;8.23;;;8.40;64.60;;;;;;5098899;28;20063;-84
2021/04/30 00:48:04;;;;;;;11.02;8.20;;;8.40;64.70;;;;;;5105526;28;20377;-88
2021/04/30 00:50:32;;;;;;;14.40;8.93;;;8.30;64.60;;;;;;5097016;28;20089;-88
2021/04/30 00:52:58;;;;;;;10.57;7.55;;;8.40;64.80;;;;;;5095954;28;20051;-91
2021/04/30 00:55:24;;;;;;;16.85;9.13;;;8.30;64.70;;;;;;5077659;28;20072;-88
2021/04/30 00:57:57;;;;;;;15.82;8.57;;;8.40;64.90;;;;;;5077332;28;20020;-89
2021/04/30 01:00:25;;;;;;;16.40;8.90;;;8.30;65.10;;;;;;5078473;28;20082;-87
2021/04/30 01:02:52;;;;;;;15.68;8.38;;;8.40;65.30;;;;;;5080831;28;20069;-88
2021/04/30 01:05:18;;;;;;;12.70;8.18;;;8.40;65.60;;;;;;5100845;28;20024;-87
2021/04/30 01:07:44;;;;;;;15.70;7.97;;;8.40;65.20;;;;;;5087634;28;20036;-85
2021/04/30 01:10:11;;;;;;;13.95;8.13;;;8.40;64.90;;;;;;5078447;28;20031;-87
2021/04/30 01:12:37;;;;;;;16.38;8.20;;;8.40;65.00;;;;;;5082315;28;20035;-89
2021/04/30 01:15:03;;;;;;;15.15;8.57;;;8.40;64.90;;;;;;5094839;28;20024;-89
2021/04/30 01:17:29;;;;;;;10.82;7.30;;;8.50;64.90;;;;;;5096049;28;20389;-90
2021/04/30 01:19:58;;;;;;;12.70;7.93;;;8.40;64.90;;;;;;5095893;28;20040;-88
2021/04/30 01:22:44;;;;;;;16.70;9.65;;;8.50;64.70;;;;;;5083581;28;20048;-88
2021/04/30 01:25:15;;;;;;;11.70;8.40;;;8.50;64.60;;;;;;5110833;28;20015;-87
2021/04/30 01:27:42;;;;;;;13.48;8.57;;;8.50;64.40;;;;;;5106976;28;20458;-89
2021/04/30 01:30:26;;;;;;;15.35;8.52;;;8.50;64.30;;;;;;5086834;28;20048;-89
2021/04/30 01:32:52;;;;;;;17.42;9.05;;;8.60;64.30;;;;;;5104699;28;20078;-86
2021/04/30 01:35:22;;;;;;;13.93;8.30;;;8.50;64.10;;;;;;5107440;28;20027;-86
2021/04/30 01:37:50;;;;;;;13.88;8.00;;;8.50;64.10;;;;;;5117907;28;20016;-87
2021/04/30 01:40:19;;;;;;;18.60;9.07;;;8.50;64.10;;;;;;5117031;28;20036;-88
2021/04/30 01:43:01;;;;;;;13.43;8.68;;;8.50;64.00;;;;;;5099426;28;20020;-88
2021/04/30 01:45:29;;;;;;;15.18;10.15;;;8.60;64.10;;;;;;5078989;28;20028;-88
2021/04/30 01:47:55;;;;;;;15.50;8.55;;;8.60;64.20;;;;;;5095641;28;20020;-87
2021/04/30 01:50:20;;;;;;;13.63;7.93;;;8.60;64.00;;;;;;5076798;28;20069;-86
2021/04/30 01:52:46;;;;;;;18.83;8.45;;;8.70;64.00;;;;;;5094782;28;20024;-85
2021/04/30 01:55:12;;;;;;;17.33;9.00;;;8.70;64.10;;;;;;5094924;28;20469;-88
2021/04/30 01:57:43;;;;;;;13.35;7.38;;;8.70;64.00;;;;;;5093345;28;20166;-86
2021/04/30 02:00:18;;;;;;;16.20;8.40;;;8.70;63.60;;;;;;5094146;28;20039;-87
2021/04/30 02:02:49;;;;;;;16.77;8.68;;;8.70;63.60;;;;;;5094015;28;20019;-88
2021/04/30 02:05:15;;;;;;;22.80;8.80;;;8.70;63.60;;;;;;5094126;28;20038;-89
2021/04/30 02:07:42;;;;;;;14.63;7.88;;;8.70;63.50;;;;;;5091625;28;20016;-87
2021/04/30 02:10:22;;;;;;;13.52;8.10;;;8.70;63.40;;;;;;5093961;28;20024;-88
2021/04/30 02:12:49;;;;;;;13.50;6.82;;;8.70;63.40;;;;;;5093059;28;20082;-88
2021/04/30 02:15:16;;;;;;;12.88;6.80;;;8.70;63.40;;;;;;5085988;28;20016;-86
2021/04/30 02:17:42;;;;;;;9.93;7.40;;;8.70;63.30;;;;;;5072337;28;20028;-91
2021/04/30 02:20:09;;;;;;;19.30;8.00;;;8.70;63.20;;;;;;5100988;28;20039;-91
2021/04/30 02:22:36;;;;;;;9.45;6.80;;;8.70;63.30;;;;;;5091725;28;20039;-87
2021/04/30 02:25:05;;;;;;;11.98;7.53;;;8.70;63.30;;;;;;5103738;28;20513;-92
2021/04/30 02:27:31;;;;;;;12.00;7.28;;;8.70;63.30;;;;;;5095639;28;20016;-89
2021/04/30 02:29:58;;;;;;;10.18;7.30;;;8.70;63.10;;;;;;5095665;28;20048;-87
2021/04/30 02:32:24;;;;;;;15.13;7.40;;;8.80;63.30;;;;;;5078009;28;20106;-89
2021/04/30 02:34:52;;;;;;;14.10;8.60;;;8.80;63.20;;;;;;5095798;28;20020;-88
2021/04/30 02:37:19;;;;;;;9.90;7.57;;;8.80;63.10;;;;;;5098124;28;20099;-88
2021/04/30 02:39:45;;;;;;;14.10;8.17;;;8.80;62.70;;;;;;5093675;28;20043;-88
2021/04/30 02:42:11;;;;;;;12.25;7.50;;;8.70;62.70;;;;;;5103473;28;20059;-87
2021/04/30 02:44:37;;;;;;;20.08;7.38;;;8.70;62.80;;;;;;5114758;28;20028;-89
2021/04/30 02:47:03;;;;;;;15.23;7.38;;;8.80;62.90;;;;;;5107843;28;20020;-90
2021/04/30 02:49:40;;;;;;;13.80;8.23;;;8.80;62.70;;;;;;5097766;28;20032;-90
2021/04/30 02:52:10;;;;;;;14.00;6.70;;;8.90;62.60;;;;;;5095313;28;20028;-89
2021/04/30 02:54:36;;;;;;;11.88;7.05;;;8.90;62.40;;;;;;5094605;28;20122;-89
2021/04/30 02:57:03;;;;;;;12.63;7.18;;;8.90;62.20;;;;;;5094142;28;20024;-89
2021/04/30 02:59:29;;;;;;;13.70;7.82;;;8.90;62.00;;;;;;5076476;28;20032;-92
2021/04/30 03:01:55;;;;;;;12.93;7.57;;;9.00;62.00;;;;;;5094404;28;20126;-90
2021/04/30 03:04:21;;;;;;;10.95;7.05;;;9.00;61.80;;;;;;5090628;28;20017;-89
2021/04/30 03:06:48;;;;;;;10.20;6.68;;;9.00;61.60;;;;;;5088376;28;20074;-89
2021/04/30 03:09:15;;;;;;;10.70;7.32;;;9.10;61.20;;;;;;5102099;28;20024;-90
2021/04/30 03:11:42;;;;;;;11.50;7.55;;;9.10;61.00;;;;;;5101440;28;20016;-87
2021/04/30 03:14:08;;;;;;;15.15;8.68;;;9.20;60.80;;;;;;5096074;28;20020;-89
2021/04/30 03:16:34;;;;;;;15.88;7.35;;;9.30;60.90;;;;;;5096925;28;20035;-89
2021/04/30 03:19:00;;;;;;;12.07;7.50;;;9.30;60.70;;;;;;5097885;28;20579;-88
2021/04/30 03:21:26;;;;;;;12.60;7.68;;;9.30;60.40;;;;;;5099090;28;20024;-88
2021/04/30 03:23:52;;;;;;;7.90;5.82;;;9.40;60.40;;;;;;5101927;28;20023;-87
2021/04/30 03:26:18;;;;;;;10.75;6.18;;;9.40;59.90;;;;;;5071136;28;20021;-87
2021/04/30 03:28:44;;;;;;;13.57;6.80;;;9.40;59.90;;;;;;5098670;28;20069;-89
2021/04/30 03:31:10;;;;;;;9.77;5.15;;;9.50;59.50;;;;;;5098862;28;20044;-90
2021/04/30 03:33:37;;;;;;;12.65;5.75;;;9.50;58.90;;;;;;5100567;28;20405;-88
2021/04/30 03:36:04;;;;;;;7.88;6.35;;;9.50;58.80;;;;;;5097268;28;20024;-87
2021/04/30 03:38:30;;;;;;;8.57;6.47;;;9.60;58.50;;;;;;5097512;28;20107;-87
2021/04/30 03:40:56;;;;;;;9.82;6.20;;;9.60;58.40;;;;;;5102706;28;20055;-88
2021/04/30 03:43:22;;;;;;;8.50;5.75;;;9.60;58.40;;;;;;5094570;28;20024;-90
2021/04/30 03:45:50;;;;;;;9.50;5.60;;;9.70;58.30;;;;;;5086625;28;20027;-88
2021/04/30 03:48:20;;;;;;;8.07;6.57;;;9.80;57.90;;;;;;5080852;28;20078;-90
2021/04/30 03:50:46;;;;;;;15.57;6.93;;;9.90;57.80;;;;;;5079456;28;20130;-90
2021/04/30 03:53:12;;;;;;;10.32;7.03;;;10.00;57.70;;;;;;5082509;28;20031;-88
2021/04/30 03:55:38;;;;;;;8.63;6.03;;;10.10;57.60;;;;;;5098208;28;20350;-90
2021/04/30 03:58:57;;;;;;;10.43;5.82;;;10.20;57.20;;;;;;5081141;28;20023;-93
2021/04/30 04:01:23;;;;;;;10.48;6.15;;;10.30;56.80;;;;;;5080366;28;20069;-90
2021/04/30 04:03:50;;;;;;;18.20;7.80;;;10.20;56.90;;;;;;5098756;28;20020;-92
2021/04/30 04:06:16;;;;;;;9.23;5.85;;;10.30;56.70;;;;;;5083975;28;20050;-89
2021/04/30 04:08:42;;;;;;;9.88;6.68;;;10.30;56.10;;;;;;5096885;28;20020;-88
2021/04/30 04:11:08;;;;;;;13.75;7.45;;;10.40;56.60;;;;;;5079500;28;20127;-91
2021/04/30 04:13:33;;;;;;;14.57;6.43;;;10.40;55.70;;;;;;5088934;28;20101;-93
2021/04/30 04:16:02;;;;;;;10.75;6.50;;;10.50;56.00;;;;;;5078326;28;20031;-92
2021/04/30 04:18:30;;;;;;;11.65;6.13;;;10.50;55.80;;;;;;5107434;28;20023;-90
2021/04/30 04:20:56;;;;;;;13.80;5.35;;;10.60;55.80;;;;;;5084906;28;20425;-93
2021/04/30 04:23:21;;;;;;;8.90;6.22;;;10.70;55.40;;;;;;5086908;28;20028;-87
2021/04/30 04:25:47;;;;;;;12.77;6.13;;;10.70;55.10;;;;;;5110996;28;20020;-86
2021/04/30 04:28:13;;;;;;;11.35;5.78;;;10.70;55.00;;;;;;5112241;28;20042;-91
2021/04/30 04:30:40;;;;;;;11.63;5.70;;;10.80;54.90;;;;;;5112040;28;20052;-89
2021/04/30 04:33:06;;;;;;;14.57;7.15;;;10.80;54.60;;;;;;5104232;28;20028;-92
2021/04/30 04:35:32;;;;;;;13.27;6.88;;;10.90;54.70;;;;;;5075111;28;20046;-91
2021/04/30 04:37:58;;;;;;;10.35;6.25;;;11.00;54.70;;;;;;5082847;28;20050;-88
2021/04/30 04:40:25;;;;;;;11.20;6.63;;;11.20;54.10;;;;;;5090010;28;20127;-88
2021/04/30 04:42:52;;;;;;;8.57;5.55;;;11.30;53.40;;;;;;5100856;28;20024;-88
2021/04/30 04:45:18;;;;;;;10.85;6.78;;;11.30;52.90;;;;;;5088968;28;20040;-89
2021/04/30 04:47:44;;;;;;;7.43;5.60;;;11.50;52.80;;;;;;5109996;28;20020;-90
2021/04/30 04:50:11;;;;;;;8.95;5.82;;;11.80;51.80;;;;;;5098367;28;20020;-86
2021/04/30 04:52:38;;;;;;;12.02;5.57;;;11.90;51.10;;;;;;5098546;28;20024;-88
2021/04/30 04:55:05;;;;;;;10.60;5.40;;;12.00;51.20;;;;;;5102804;28;20024;-89
2021/04/30 04:57:31;;;;;;;9.90;6.00;;;12.00;50.70;;;;;;5104282;28;20098;-86
2021/04/30 04:59:57;;;;;;;10.77;5.47;;;12.10;50.90;;;;;;5103639;28;20036;-89
2021/04/30 05:02:23;;;;;;;10.20;5.70;;;12.00;50.80;;;;;;5076881;28;20111;-88
2021/04/30 05:04:49;;;;;;;8.05;5.03;;;12.00;50.50;;;;;;5096572;28;20142;-90
2021/04/30 05:07:16;;;;;;;11.13;5.78;;;12.00;50.50;;;;;;5097723;28;20020;-90
2021/04/30 05:09:42;;;;;;;11.25;6.18;;;11.90;50.60;;;;;;5086631;28;20118;-87
2021/04/30 05:12:08;;;;;;;8.77;5.70;;;12.00;50.80;;;;;;5077272;28;20446;-89
2021/04/30 05:14:34;;;;;;;13.75;5.88;;;12.20;50.20;;;;;;5096252;28;20088;-91
2021/04/30 05:17:00;;;;;;;8.20;5.50;;;12.40;50.30;;;;;;5095890;28;20024;-90
2021/04/30 05:19:26;;;;;;;8.05;5.10;;;12.60;49.10;;;;;;5076781;28;20036;-90
2021/04/30 05:21:52;;;;;;;8.70;5.55;;;12.80;48.80;;;;;;5099863;28;20135;-88
2021/04/30 05:24:18;;;;;;;9.27;5.68;;;12.90;48.60;;;;;;5079715;28;20050;-91
2021/04/30 05:26:44;;;;;;;10.00;5.63;;;12.90;48.00;;;;;;5099462;28;20020;-91
2021/04/30 05:29:11;;;;;;;9.82;5.72;;;12.90;48.00;;;;;;5103473;28;20070;-90
2021/04/30 05:31:37;;;;;;;8.30;5.57;;;13.00;48.30;;;;;;5082650;28;20035;-93
2021/04/30 05:34:04;;;;;;;15.85;5.30;;;13.10;47.70;;;;;;5097835;28;20020;-90
2021/04/30 05:36:31;;;;;;;9.68;6.47;;;13.00;48.00;;;;;;5066515;28;20059;-91
2021/04/30 05:38:57;;;;;;;9.17;5.87;;;12.90;48.30;;;;;;5096760;28;20094;-88
2021/04/30 05:41:23;;;;;;;14.50;6.25;;;12.90;48.50;;;;;;5098053;28;20023;-89
2021/04/30 05:43:49;;;;;;;11.18;6.18;;;13.00;48.50;;;;;;5089889;28;20039;-91
2021/04/30 05:46:15;;;;;;;11.63;6.43;;;13.10;48.30;;;;;;5096740;28;20048;-89
2021/04/30 05:48:41;;;;;;;16.13;6.68;;;13.10;47.70;;;;;;5089074;28;20477;-91
2021/04/30 05:51:07;;;;;;;9.60;5.43;;;12.90;48.00;;;;;;5082210;28;20054;-89
2021/04/30 05:53:33;;;;;;;8.68;4.35;;;12.90;48.40;;;;;;5078065;28;20051;-89
2021/04/30 05:55:59;;;;;;;6.60;5.85;;;12.80;48.00;;;;;;5076353;28;20016;-93
2021/04/30 05:58:25;;;;;;;10.20;5.47;;;12.80;48.30;;;;;;5103024;28;20038;-88
2021/04/30 06:00:51;;;;;;;10.13;5.70;;;12.80;48.30;;;;;;5105525;28;20032;-89
2021/04/30 06:03:17;;;;;;;10.43;6.03;;;13.00;48.40;;;;;;5097559;28;20031;-92
2021/04/30 06:05:43;;;;;;;9.23;5.80;;;13.20;48.20;;;;;;5091646;28;20028;-88
2021/04/30 06:08:09;;;;;;;6.75;5.65;;;13.30;47.70;;;;;;5104385;28;20078;-92
2021/04/30 06:14:08;;;;;;;11.80;7.03;;;13.30;47.30;;;;;;4990397;28;20042;-90
2021/04/30 06:16:33;;;;;;;10.13;5.28;;;13.30;48.20;;;;;;5084079;28;20041;-86
2021/04/30 06:18:59;;;;;;;8.77;5.85;;;13.30;48.20;;;;;;5093768;28;20103;-86
2021/04/30 06:21:25;;;;;;;9.55;5.70;;;13.10;47.70;;;;;;5102926;28;20039;-85
2021/04/30 06:23:51;;;;;;;10.15;5.72;;;13.10;48.50;;;;;;5094980;28;20013;-87
2021/04/30 06:26:17;;;;;;;11.93;5.07;;;13.20;48.40;;;;;;5094684;28;20485;-86
2021/04/30 06:28:42;;;;;;;9.70;5.55;;;13.20;48.00;;;;;;5075305;28;20023;-86
2021/04/30 06:31:09;;;;;;;7.03;5.35;;;13.30;48.00;;;;;;5095127;28;20451;-88
2021/04/30 06:33:35;;;;;;;7.13;5.45;;;13.30;47.80;;;;;;5097362;28;20039;-86
2021/04/30 06:36:01;;;;;;;13.20;6.55;;;13.30;48.00;;;;;;5094555;28;20446;-88
2021/04/30 06:38:27;;;;;;;10.15;5.22;;;13.20;48.20;;;;;;5094228;28;20103;-87
2021/04/30 06:40:53;;;;;;;7.75;4.95;;;13.30;48.60;;;;;;5087548;28;20481;-85
2021/04/30 06:43:19;;;;;;;7.95;5.50;;;13.20;49.00;;;;;;5094914;28;20024;-86
2021/04/30 06:45:45;;;;;;;12.00;5.88;;;13.00;49.20;;;;;;5077925;28;20393;-85
2021/04/30 06:48:11;;;;;;;7.93;5.75;;;13.00;49.70;;;;;;5082515;28;20027;-86
2021/04/30 06:50:37;;;;;;;7.82;4.63;;;13.00;49.60;;;;;;5077732;28;20525;-87
2021/04/30 06:53:02;;;;;;;8.57;5.93;;;13.10;49.50;;;;;;5093220;28;20034;-86
2021/04/30 06:55:28;;;;;;;12.25;6.10;;;13.00;49.50;;;;;;5093143;28;20481;-86
2021/04/30 06:57:54;;;;;;;8.88;5.28;;;13.10;49.80;;;;;;5093037;28;20017;-86
2021/04/30 07:00:20;;;;;;;6.75;4.75;;;13.20;49.60;;;;;;5092950;28;20112;-86
2021/04/30 07:02:46;;;;;;;9.55;6.45;;;13.20;49.50;;;;;;5093185;28;20059;-87
2021/04/30 07:05:13;;;;;;;8.32;5.15;;;13.20;49.90;;;;;;5093464;28;20028;-86
2021/04/30 07:07:40;;;;;;;10.20;5.18;;;13.40;49.50;;;;;;5094543;28;20045;-87
2021/04/30 07:10:07;;;;;;;7.93;5.60;;;13.50;49.40;;;;;;5094484;28;20024;-86
2021/04/30 07:12:33;;;;;;;12.10;5.55;;;13.80;49.10;;;;;;5098020;28;20028;-85
2021/04/30 07:15:01;;;;;;;11.57;5.93;;;14.10;48.30;;;;;;5100326;28;20020;-87
2021/04/30 07:17:28;;;;;;;7.93;5.03;;;14.30;47.80;;;;;;5079553;28;20058;-86
2021/04/30 07:19:54;;;;;;;18.88;6.05;;;14.30;47.30;;;;;;5097816;28;20070;-86
2021/04/30 07:22:20;;;;;;;15.27;6.47;;;14.30;47.50;;;;;;5096820;28;20039;-85
2021/04/30 07:24:46;;;;;;;12.50;5.70;;;14.30;47.10;;;;;;5098382;28;20051;-87
2021/04/30 07:27:12;;;;;;;12.10;6.05;;;14.20;47.40;;;;;;5108314;28;20543;-86
2021/04/30 07:29:38;;;;;;;10.75;5.88;;;14.00;47.40;;;;;;5104622;28;20078;-85
2021/04/30 07:32:04;;;;;;;8.75;5.78;;;14.00;47.40;;;;;;5099101;28;20032;-87
2021/04/30 07:34:30;;;;;;;11.45;6.80;;;13.80;47.50;;;;;;5098251;28;20028;-89
2021/04/30 07:36:56;;;;;;;7.90;6.32;;;14.00;47.90;;;;;;5099852;28;20456;-86
2021/04/30 07:39:22;;;;;;;12.18;6.97;;;14.20;47.10;;;;;;5094639;28;20036;-87
2021/04/30 07:41:47;;;;;;;13.23;7.43;;;14.40;47.00;;;;;;5096524;28;20476;-86
2021/04/30 07:44:13;;;;;;;14.23;6.78;;;14.50;46.90;;;;;;5078064;28;20020;-86
2021/04/30 07:46:39;;;;;;;12.70;6.63;;;14.50;46.40;;;;;;5098340;28;20496;-86
2021/04/30 07:49:05;;;;;;;11.13;6.78;;;14.60;47.00;;;;;;5099451;28;20031;-88
2021/04/30 07:51:31;;;;;;;11.65;6.53;;;14.50;46.40;;;;;;5096932;28;20393;-86
2021/04/30 07:53:57;;;;;;;9.73;6.00;;;14.60;46.20;;;;;;5095789;28;20020;-88
2021/04/30 07:56:23;;;;;;;10.82;5.72;;;14.60;46.50;;;;;;5077867;28;20028;-87
2021/04/30 07:58:49;;;;;;;13.40;6.03;;;14.50;46.90;;;;;;5095595;28;20012;-87
2021/04/30 08:01:14;;;;;;;8.32;5.47;;;14.30;47.30;;;;;;5096280;28;20077;-86
2021/04/30 08:03:40;;;;;;;12.80;6.78;;;14.00;49.40;;;;;;5096170;28;20020;-86
2021/04/30 08:06:06;;;;;;;11.00;6.40;;;13.60;51.50;;;;;;5096509;28;20016;-87
2021/04/30 08:08:32;;;;;;;9.38;4.95;;;13.30;52.80;;;;;;5078067;28;20073;-87
2021/04/30 08:10:58;;;;;;;6.30;4.57;;;13.10;54.40;;;;;;5095594;28;20025;-87
2021/04/30 08:13:24;;;;;;;10.40;5.25;;;12.90;55.20;;;;;;5095621;28;20074;-86
2021/04/30 08:15:49;;;;;;;8.70;4.85;;;12.80;56.10;;;;;;5095411;28;20024;-87
2021/04/30 08:18:18;;;;;;;5.40;4.78;;;12.80;56.10;;;;;;5095259;28;20077;-88
2021/04/30 08:20:44;;;;;;;7.00;4.18;;;12.80;56.80;;;;;;5078086;28;20032;-87
2021/04/30 08:23:12;;;;;;;6.05;4.60;;;12.60;57.20;;;;;;5063871;28;20146;-87
2021/04/30 08:25:38;;;;;;;5.57;4.20;;;12.50;57.50;;;;;;5094997;28;20036;-89
2021/04/30 08:28:04;;;;;;;6.78;3.92;;;12.50;58.50;;;;;;5080823;28;20031;-86
2021/04/30 08:30:30;;;;;;;7.57;4.55;;;12.40;59.20;;;;;;5080155;28;20097;-87
2021/04/30 08:32:56;;;;;;;8.07;4.10;;;12.30;60.00;;;;;;5101202;28;20020;-86
2021/04/30 08:35:22;;;;;;;5.15;3.85;;;12.30;59.60;;;;;;5080618;28;20032;-86
2021/04/30 08:37:48;;;;;;;7.50;3.88;;;12.30;60.10;;;;;;5099404;28;20023;-87
2021/04/30 08:40:14;;;;;;;8.48;5.50;;;12.20;60.50;;;;;;5096222;28;20038;-88
2021/04/30 08:42:40;;;;;;;6.22;5.50;;;12.20;61.20;;;;;;5096016;28;20487;-87
2021/04/30 08:45:12;;;;;;;5.22;4.70;;;12.20;61.80;;;;;;5097313;28;20055;-86
2021/04/30 08:47:37;;;;;;;5.10;3.47;;;12.20;62.40;;;;;;5083109;28;20473;-86
2021/04/30 08:50:04;;;;;;;6.22;4.35;;;11.90;63.70;;;;;;5107541;28;20086;-87
2021/04/30 08:52:30;;;;;;;10.52;5.28;;;11.50;65.40;;;;;;5101716;28;20441;-88
2021/04/30 08:55:04;;;;;;;6.55;5.80;;;11.30;67.00;;;;;;5096827;28;20059;-87
2021/04/30 08:57:30;;;;;;;6.55;5.13;;;11.20;68.30;;;;;;5079141;28;20020;-88
2021/04/30 08:59:58;;;;;;;9.10;5.40;;;11.10;69.40;;;;;;5095473;28;20028;-88
2021/04/30 09:02:31;;;;;;;;;;;10.90;71.80;;;;;;5095880;28;20359;-86
2021/04/30 09:05:00;;;;;;;8.98;5.97;;;10.80;70.60;;;;;;5077741;28;20365;-87
2021/04/30 09:07:26;;;;;;;9.88;6.50;;;10.60;75.10;;;;;;5095898;28;20027;-85
2021/04/30 09:10:07;;;;;;;8.18;5.80;;;10.60;75.90;;;;;;5095787;28;20028;-87
2021/04/30 09:12:34;;;;;;;9.95;5.68;;;10.60;75.90;;;;;;5076894;28;20021;-86
2021/04/30 09:15:00;;;;;;;9.50;7.27;;;10.70;76.10;;;;;;5095482;28;20106;-88
2021/04/30 09:17:28;;;;;;;7.97;6.88;;;10.70;76.60;;;;;;5095455;28;20099;-87
2021/04/30 09:20:01;;;;;;;13.52;5.82;;;10.80;76.90;;;;;;5095663;28;20040;-86
2021/04/30 09:22:32;;;;;;;11.40;7.38;;;10.90;76.50;;;;;;5097839;28;20028;-88
2021/04/30 09:25:06;;;;;;;9.57;7.43;;;11.00;76.30;;;;;;5078973;28;20035;-85
2021/04/30 09:27:44;;;;;;;9.38;6.30;;;11.00;76.30;;;;;;5097243;28;20073;-87
2021/04/30 09:30:32;;;;;;;9.52;7.50;;;11.00;76.20;;;;;;5094559;28;20056;-85
2021/04/30 09:33:10;;;;;;;13.32;8.10;;;11.10;76.30;;;;;;5095041;28;20028;-87
2021/04/30 09:35:37;;;;;;;;;;;11.20;76.10;;;;;;5078032;28;20023;-84
2021/04/30 09:38:32;;;;;;;10.32;8.80;;;11.30;75.50;;;;;;5094849;28;19926;-86
2021/04/30 09:41:01;;;;;;;10.68;8.10;;;11.20;76.10;;;;;;5082408;28;20366;-85
2021/04/30 09:43:48;;;;;;;10.93;9.10;;;11.30;77.20;;;;;;5094244;28;20024;-84
2021/04/30 09:46:34;;;;;;;10.55;9.40;;;11.10;77.50;;;;;;5067039;28;20397;-86
2021/04/30 09:49:13;;;;;;;13.48;9.52;;;11.00;78.30;;;;;;5092651;28;20080;-87
2021/04/30 09:51:44;;;;;;;12.30;8.95;;;11.00;79.70;;;;;;5094350;28;20071;-86
2021/04/30 09:54:23;;;;;;;13.23;9.65;;;11.10;79.30;;;;;;5094833;28;20496;-85
2021/04/30 09:57:08;;;;;;;10.32;8.02;;;11.20;78.40;;;;;;5096518;28;20063;-88
2021/04/30 09:59:38;;;;;;;14.50;8.40;;;11.40;76.90;;;;;;5087721;28;20044;-87
2021/04/30 10:02:15;;;;;;;9.50;8.50;;;11.50;76.30;;;;;;5094542;28;20052;-86
2021/04/30 10:04:43;;;;;;;10.05;9.05;;;11.70;75.60;;;;;;5094980;28;20024;-86
2021/04/30 10:07:10;;;;;;;15.35;9.75;;;12.00;75.30;;;;;;5095222;28;20028;-88
2021/04/30 10:09:38;;;;;;;10.82;9.38;;;12.10;74.00;;;;;;5096185;28;20528;-87
2021/04/30 10:12:34;;;;;;;11.75;10.35;;;12.10;72.80;;;;;;5095397;28;20431;-86
2021/04/30 10:15:00;;;;;;;9.90;8.38;;;12.20;72.90;;;;;;5095242;28;20389;-86
2021/04/30 10:18:00;;;;;;;14.80;10.75;;;12.30;71.60;;;;;;5095782;28;20044;-89
2021/04/30 10:20:27;;;;;;;14.23;8.85;;;12.30;71.10;;;;;;5076816;28;20044;-86
2021/04/30 10:23:05;;;;;;;9.30;8.35;;;12.40;70.60;;;;;;5079972;28;20024;-87
2021/04/30 10:25:31;;;;;;;;;;;12.50;70.40;;;;;;5081161;28;20020;-87
2021/04/30 10:28:02;;;;;;;13.43;6.75;;;12.60;69.40;;;;;;5093888;28;19908;-86
2021/04/30 10:30:56;;;;;;;9.25;7.63;;;12.60;69.10;;;;;;5093257;28;20048;-87
2021/04/30 10:33:33;;;;;;;11.07;8.18;;;12.70;68.80;;;;;;5076336;28;20027;-88
2021/04/30 10:36:16;;;;;;;12.88;8.27;;;12.80;68.70;;;;;;5084961;28;20388;-88
2021/04/30 10:38:49;;;;;;;9.50;7.35;;;12.90;68.80;;;;;;5093923;28;20158;-87
2021/04/30 10:41:26;;;;;;;11.95;8.02;;;13.00;68.00;;;;;;5093821;28;20118;-86
2021/04/30 10:44:28;;;;;;;11.57;8.38;;;13.00;67.70;;;;;;5097415;28;20027;-86
2021/04/30 10:47:15;;;;;;;10.95;7.93;;;13.10;68.00;;;;;;5096179;28;20020;-86
2021/04/30 10:50:02;;;;;;;11.80;9.32;;;13.20;67.80;;;;;;5096776;28;20446;-86
2021/04/30 10:52:31;;;;;;;11.68;7.88;;;13.10;68.10;;;;;;5082119;28;20024;-86
2021/04/30 10:55:22;;;;;;;14.55;8.68;;;13.10;67.40;;;;;;5097186;28;20079;-88
2021/04/30 10:57:55;;;;;;;11.70;9.45;;;13.20;67.50;;;;;;5083781;28;20389;-87
2021/04/30 11:00:51;;;;;;;13.23;10.20;;;13.40;68.20;;;;;;5094404;28;20063;-85
2021/04/30 11:03:23;;;;;;;10.07;8.15;;;13.50;67.00;;;;;;5094794;28;20047;-87
2021/04/30 11:05:58;;;;;;;15.10;10.10;;;13.50;66.20;;;;;;5094438;28;20377;-85
2021/04/30 11:08:48;;;;;;;8.15;7.35;;;13.60;66.70;;;;;;5094704;28;20016;-88
2021/04/30 11:11:15;;;;;;;11.30;8.50;;;14.00;65.00;;;;;;5074405;28;20032;-87
2021/04/30 11:13:41;;;;;;;13.30;9.07;;;13.90;64.80;;;;;;5094178;28;20027;-85
2021/04/30 11:16:08;;;;;;;13.50;9.98;;;13.80;66.30;;;;;;5094033;28;20441;-88
2021/04/30 11:19:00;;;;;;;14.32;11.13;;;13.70;67.10;;;;;;5093362;28;20099;-88
2021/04/30 11:21:54;;;;;;;10.13;9.13;;;13.50;67.80;;;;;;5074896;28;20067;-87
2021/04/30 11:24:36;;;;;;;11.77;9.35;;;13.50;67.60;;;;;;5094678;28;20359;-85
2021/04/30 11:27:27;;;;;;;10.52;9.45;;;13.50;67.60;;;;;;5092763;28;20106;-86
2021/04/30 11:30:14;;;;;;;11.25;9.10;;;13.60;68.00;;;;;;5092160;28;20044;-88
2021/04/30 11:32:48;;;;;;;9.93;7.80;;;13.70;66.80;;;;;;5090945;28;20077;-87
2021/04/30 11:35:15;;;;;;;10.43;8.40;;;13.70;66.40;;;;;;5070951;28;20057;-86
2021/04/30 11:37:42;;;;;;;11.95;8.50;;;13.80;66.10;;;;;;5092246;28;20043;-87
2021/04/30 11:40:13;;;;;;;10.02;9.02;;;13.90;66.00;;;;;;5092304;28;20039;-86
2021/04/30 11:42:40;;;;;;;11.90;8.98;;;14.00;65.60;;;;;;5092598;28;20024;-86
2021/04/30 11:45:07;;;;;;;10.70;9.57;;;14.10;65.20;;;;;;5094557;28;20157;-87
2021/04/30 11:47:35;;;;;;;9.73;8.70;;;14.20;64.70;;;;;;5062326;28;20031;-88
2021/04/30 11:50:02;;;;;;;10.32;7.72;;;14.20;64.70;;;;;;5074401;28;20036;-86
2021/04/30 11:52:44;;;;;;;11.85;8.50;;;14.20;63.90;;;;;;5092716;28;20179;-88
2021/04/30 11:55:13;;;;;;;10.23;7.30;;;14.10;64.40;;;;;;5093219;28;20024;-88
2021/04/30 11:57:39;;;;;;;9.35;8.45;;;14.10;64.30;;;;;;5092800;28;20019;-87
2021/04/30 12:00:25;;;;;;;10.02;8.98;;;13.80;66.80;;;;;;5094970;28;20112;-87
2021/04/30 12:03:15;;;;;;;10.02;7.85;;;13.60;66.90;;;;;;5082453;28;20027;-86
2021/04/30 12:05:44;;;;;;;9.80;8.20;;;13.60;66.90;;;;;;5096226;28;20489;-87
2021/04/30 12:08:11;;;;;;;11.30;7.50;;;13.70;66.40;;;;;;5079612;28;20491;-87
2021/04/30 12:10:38;;;;;;;9.73;7.13;;;13.90;65.60;;;;;;5098385;28;20028;-87
2021/04/30 12:13:08;;;;;;;11.35;8.15;;;14.10;64.90;;;;;;5083739;28;20051;-87
2021/04/30 12:15:35;;;;;;;8.75;7.07;;;14.20;64.70;;;;;;5077957;28;20071;-87
2021/04/30 12:18:03;;;;;;;16.00;8.63;;;14.40;64.20;;;;;;5096078;28;20050;-85
2021/04/30 12:20:31;;;;;;;;;;;14.40;64.00;;;;;;5097930;28;20054;-86
2021/04/30 12:23:04;;;;;;;8.80;7.75;;;14.60;63.70;;;;;;5098414;28;19911;-87
2021/04/30 12:25:33;;;;;;;9.95;6.95;;;14.70;63.30;;;;;;5083319;28;20012;-86
2021/04/30 12:28:18;;;;;;;9.43;8.07;;;14.70;62.90;;;;;;5098091;28;20024;-87
2021/04/30 12:30:45;;;;;;;9.98;7.60;;;14.70;62.90;;;;;;5083846;28;20043;-87
2021/04/30 12:33:30;;;;;;;9.18;8.25;;;14.80;62.40;;;;;;5078813;28;20107;-86
2021/04/30 12:36:21;;;;;;;6.82;6.03;;;14.90;62.50;;;;;;5083853;28;20043;-86
2021/04/30 12:38:51;;;;;;;10.15;6.53;;;14.80;62.10;;;;;;5084440;28;20077;-87
2021/04/30 12:41:23;;;;;;;9.73;7.15;;;14.80;62.40;;;;;;5096092;28;20395;-87
2021/04/30 12:43:50;;;;;;;12.55;7.35;;;14.80;62.50;;;;;;5099352;28;20084;-87
2021/04/30 12:46:19;;;;;;;9.52;6.75;;;14.80;62.50;;;;;;5100366;28;20481;-85
2021/04/30 12:48:48;;;;;;;13.15;7.95;;;14.80;62.30;;;;;;5063720;28;20315;-87
2021/04/30 12:51:21;;;;;;;13.75;7.85;;;14.90;62.50;;;;;;5078948;28;20031;-85
2021/04/30 12:53:47;;;;;;;16.40;7.80;;;14.90;62.10;;;;;;5101903;28;20024;-87
2021/04/30 12:56:29;;;;;;;12.55;8.23;;;14.90;62.00;;;;;;5067801;28;20357;-86
2021/04/30 12:59:11;;;;;;;15.30;6.82;;;15.00;62.10;;;;;;5095813;28;20107;-87